Hlavní strana
METAR-TAF:

METAR-TAF

Letiště :

Stavropol, Rusko

zeměpisná šířka: 45-20N, zeměpisná délka: 042-00E, výška: 453 m

Aktuální stav počasí

Zpráva byla vytvořena před 37 minutami, v 20:00 UTC
Jihozápadní vítr 4 kt
Teplota 1°C
Vlhkost vzduchu 86%
Tlak 1025 hPa
Viditelnost 10 km a více
Žádná oblačnost pod 1500 m, nevyskytují se cumulonimby.

METAR: URMT 192000Z 23002MPS CAVOK 01/M01 Q1025 R07/010070 TEMPO 0200 FZFG BKN002 BKN020 RMK QFE728

Čas: 00:37 (20:37 UTC)

Předpověď počasí

Zpráva byla vytvořena před 3 hodinami a 37 minutami, v 17:00 UTC
Předpověď platná od 19 v 18 UTC do 20 v 03 UTC
Východojihovýchodní vítr 6 kt s nárazy do 16 kt
Viditelnost: 3100 m
Polojasno ve výšce 1100 ft
Polojasno ve výšce 2000 ft
kouřmo
Dočasný
od 19 v 21 UTC do 20 v 03 UTC
Viditelnost: 0300 m
Oblačno až skoro zataženo ve výšce 200 ft
Oblačno až skoro zataženo ve výšce 2000 ft
mlha

TAF: URMT 191700Z 1918/2003 12003G08MPS 3100 BR SCT011 SCT020 TEMPO 1921/2003 0300 FG BKN002 BKN020

Stav a předpovědi počasí z více než 4 000 letišť (zprávy METAR a TAF).

Červené a žluté tečky na mapě představují dostupné meteorologické stanice.

Když kurzor umístíte na tečku, zobrazí se název stanice.

Pak kliknutím zobrazíte stav a předpověď počasí.

Chcete-li změnit mapu, kliknutím na zelené tlačítko se znaménkem +mapu přiblížíte, kliknutím na zelené tlačítko se znaménkem – mapu oddálíte a kliknutím na zelené šipky přejdete na sousední mapy.


METAR-TAF: